East Greenville, Ohio
Current Conditions -  °F | °C
As of 9:10 AM on Thursday 23 Oct 2014 (Local Time) from KCAK Reporting Station
Haze Haze  
Wind Chill: 45°   Ceiling: 600
Heat Index: 48°   Visibility: 5mi
Dew Point: 45°   Wind: 8mph
Humidity: 87%   Direction: 310°NW
Pressure: 30.18"   Gusts: NA
Location:  40.8419°N, 81.6299°W
Report Text: KCAK 231310Z 31007KT 5SM BR BKN006 BKN019 09/07 A3018 RMK AO2 BKN006 V OVC
Loading
Personal Weather Stations






























Interactive Weather Map
Tropical Storm Tracking
New forecast layout! Learn more

10-Day Weather Forecast

Advertisements
Track Severe Weather on mobile